sensor_id;sensor_type;location;lat;lon;timestamp;pressure;altitude;pressure_sealevel;temperature;humidity
9035;BME280;4552;43.422;24.592;2024-01-30T00:00:25;102415.47;;;2.51;91.67
9035;BME280;4552;43.422;24.592;2024-01-30T00:02:52;102411.47;;;2.56;91.86
9035;BME280;4552;43.422;24.592;2024-01-30T00:12:05;102406.72;;;2.63;92.52
9035;BME280;4552;43.422;24.592;2024-01-30T00:14:32;102407.44;;;2.75;91.70
9035;BME280;4552;43.422;24.592;2024-01-30T00:16:59;102419.91;;;2.68;90.83
9035;BME280;4552;43.422;24.592;2024-01-30T00:19:26;102390.19;;;2.60;90.85
9035;BME280;4552;43.422;24.592;2024-01-30T00:28:38;102409.78;;;2.56;92.33
9035;BME280;4552;43.422;24.592;2024-01-30T00:31:05;102404.34;;;2.52;92.58
9035;BME280;4552;43.422;24.592;2024-01-30T00:33:32;102414.31;;;2.60;92.22
9035;BME280;4552;43.422;24.592;2024-01-30T00:35:59;102416.53;;;2.54;92.33
9035;BME280;4552;43.422;24.592;2024-01-30T00:38:26;102413.53;;;2.61;92.30
9035;BME280;4552;43.422;24.592;2024-01-30T00:40:53;102417.72;;;2.59;92.75
9035;BME280;4552;43.422;24.592;2024-01-30T00:43:20;102411.66;;;2.73;91.93
9035;BME280;4552;43.422;24.592;2024-01-30T00:45:48;102390.53;;;2.66;91.64
9035;BME280;4552;43.422;24.592;2024-01-30T00:48:16;102404.75;;;2.74;92.13
9035;BME280;4552;43.422;24.592;2024-01-30T01:00:49;102401.66;;;2.79;92.05
9035;BME280;4552;43.422;24.592;2024-01-30T01:03:16;102399.75;;;2.77;91.59
9035;BME280;4552;43.422;24.592;2024-01-30T01:12:18;102405.88;;;2.63;91.28
9035;BME280;4552;43.422;24.592;2024-01-30T01:14:45;102401.84;;;2.53;92.06
9035;BME280;4552;43.422;24.592;2024-01-30T01:17:13;102385.28;;;2.64;92.95
9035;BME280;4552;43.422;24.592;2024-01-30T01:19:40;102401.03;;;2.54;91.79
9035;BME280;4552;43.422;24.592;2024-01-30T01:22:07;102389.53;;;2.64;92.54
9035;BME280;4552;43.422;24.592;2024-01-30T01:24:35;102393.91;;;2.79;92.69
9035;BME280;4552;43.422;24.592;2024-01-30T01:27:03;102395.53;;;2.63;91.57
9035;BME280;4552;43.422;24.592;2024-01-30T01:29:29;102390.44;;;2.64;92.72
9035;BME280;4552;43.422;24.592;2024-01-30T01:31:56;102401.56;;;2.63;92.88
9035;BME280;4552;43.422;24.592;2024-01-30T01:34:25;102388.41;;;2.44;94.43
9035;BME280;4552;43.422;24.592;2024-01-30T01:36:52;102386.69;;;2.59;93.65
9035;BME280;4552;43.422;24.592;2024-01-30T01:39:21;102386.88;;;2.48;93.62
9035;BME280;4552;43.422;24.592;2024-01-30T01:41:49;102384.81;;;2.42;94.44
9035;BME280;4552;43.422;24.592;2024-01-30T01:44:17;102382.06;;;2.39;94.19
9035;BME280;4552;43.422;24.592;2024-01-30T01:46:44;102383.22;;;2.44;94.23
9035;BME280;4552;43.422;24.592;2024-01-30T01:49:11;102376.81;;;2.38;94.66
9035;BME280;4552;43.422;24.592;2024-01-30T01:51:41;102381.88;;;2.36;95.33
9035;BME280;4552;43.422;24.592;2024-01-30T01:54:10;102375.66;;;2.47;94.40
9035;BME280;4552;43.422;24.592;2024-01-30T01:56:38;102383.41;;;2.47;93.46
9035;BME280;4552;43.422;24.592;2024-01-30T01:59:06;102386.97;;;2.64;93.53
9035;BME280;4552;43.422;24.592;2024-01-30T02:01:34;102394.97;;;2.54;93.52
9035;BME280;4552;43.422;24.592;2024-01-30T02:04:01;102365.03;;;2.57;92.88
9035;BME280;4552;43.422;24.592;2024-01-30T02:06:28;102386.22;;;2.81;93.01
9035;BME280;4552;43.422;24.592;2024-01-30T02:08:56;102384.69;;;2.84;91.09
9035;BME280;4552;43.422;24.592;2024-01-30T02:28:14;102385.88;;;2.31;95.05
9035;BME280;4552;43.422;24.592;2024-01-30T02:30:42;102372.16;;;2.18;96.04
9035;BME280;4552;43.422;24.592;2024-01-30T02:33:09;102366.56;;;2.10;96.88
9035;BME280;4552;43.422;24.592;2024-01-30T02:35:36;102375.66;;;2.18;97.44
9035;BME280;4552;43.422;24.592;2024-01-30T02:38:04;102382.50;;;2.18;96.83
9035;BME280;4552;43.422;24.592;2024-01-30T02:40:31;102370.41;;;2.17;96.96
9035;BME280;4552;43.422;24.592;2024-01-30T02:42:59;102368.78;;;2.19;97.58
9035;BME280;4552;43.422;24.592;2024-01-30T02:45:28;102382.69;;;2.35;97.02
9035;BME280;4552;43.422;24.592;2024-01-30T02:47:54;102380.91;;;2.34;95.83
9035;BME280;4552;43.422;24.592;2024-01-30T02:50:21;102386.78;;;2.46;95.63
9035;BME280;4552;43.422;24.592;2024-01-30T02:52:48;102388.13;;;2.54;94.80
9035;BME280;4552;43.422;24.592;2024-01-30T02:55:15;102375.38;;;2.57;94.09
9035;BME280;4552;43.422;24.592;2024-01-30T02:57:44;102381.22;;;2.69;94.85
9035;BME280;4552;43.422;24.592;2024-01-30T03:00:11;102387.94;;;2.51;95.15
9035;BME280;4552;43.422;24.592;2024-01-30T03:02:43;102388.41;;;2.44;96.22
9035;BME280;4552;43.422;24.592;2024-01-30T03:05:14;102384.47;;;2.65;95.96
9035;BME280;4552;43.422;24.592;2024-01-30T03:11:03;102387.59;;;2.45;94.92
9035;BME280;4552;43.422;24.592;2024-01-30T03:13:30;102387.16;;;2.38;95.91
9035;BME280;4552;43.422;24.592;2024-01-30T03:15:57;102390.69;;;2.25;97.17
9035;BME280;4552;43.422;24.592;2024-01-30T03:18:26;102367.19;;;2.06;97.27
9035;BME280;4552;43.422;24.592;2024-01-30T03:41:07;102357.47;;;2.02;99.68
9035;BME280;4552;43.422;24.592;2024-01-30T03:43:35;102359.78;;;2.12;99.13
9035;BME280;4552;43.422;24.592;2024-01-30T03:46:02;102361.66;;;2.15;99.92
9035;BME280;4552;43.422;24.592;2024-01-30T03:48:30;102343.13;;;2.07;99.83
9035;BME280;4552;43.422;24.592;2024-01-30T05:02:06;102394.63;;;2.33;99.87
9035;BME280;4552;43.422;24.592;2024-01-30T05:04:33;102398.81;;;2.46;98.93
9035;BME280;4552;43.422;24.592;2024-01-30T05:07:00;102392.84;;;2.61;97.88
9035;BME280;4552;43.422;24.592;2024-01-30T05:09:27;102401.75;;;2.66;97.08
9035;BME280;4552;43.422;24.592;2024-01-30T05:11:54;102387.13;;;2.52;96.47
9035;BME280;4552;43.422;24.592;2024-01-30T05:14:21;102392.22;;;2.36;97.25
9035;BME280;4552;43.422;24.592;2024-01-30T05:16:48;102390.16;;;2.16;98.03
9035;BME280;4552;43.422;24.592;2024-01-30T05:19:17;102394.28;;;2.27;98.58
9035;BME280;4552;43.422;24.592;2024-01-30T05:21:44;102388.16;;;1.98;98.92
9035;BME280;4552;43.422;24.592;2024-01-30T05:24:11;102412.59;;;2.17;99.61
9035;BME280;4552;43.422;24.592;2024-01-30T05:26:38;102401.06;;;2.40;99.39
9035;BME280;4552;43.422;24.592;2024-01-30T05:29:05;102389.47;;;2.33;97.94
9035;BME280;4552;43.422;24.592;2024-01-30T05:31:33;102384.13;;;2.30;97.79
9035;BME280;4552;43.422;24.592;2024-01-30T05:34:00;102417.25;;;2.37;97.03
9035;BME280;4552;43.422;24.592;2024-01-30T05:49:56;102411.84;;;2.47;93.62
9035;BME280;4552;43.422;24.592;2024-01-30T05:59:06;102411.03;;;2.63;90.48
9035;BME280;4552;43.422;24.592;2024-01-30T06:01:33;102391.59;;;2.55;89.77
9035;BME280;4552;43.422;24.592;2024-01-30T06:04:01;102405.69;;;2.60;88.73
9035;BME280;4552;43.422;24.592;2024-01-30T06:10:19;102403.88;;;2.59;89.12
9035;BME280;4552;43.422;24.592;2024-01-30T06:12:46;102414.06;;;2.70;88.23
9035;BME280;4552;43.422;24.592;2024-01-30T06:15:13;102415.66;;;2.68;87.61
9035;BME280;4552;43.422;24.592;2024-01-30T06:17:40;102399.78;;;2.62;88.90
9035;BME280;4552;43.422;24.592;2024-01-30T06:20:07;102408.16;;;2.73;87.49
9035;BME280;4552;43.422;24.592;2024-01-30T06:22:34;102413.53;;;3.06;86.77
9035;BME280;4552;43.422;24.592;2024-01-30T06:25:01;102415.88;;;3.02;86.67
9035;BME280;4552;43.422;24.592;2024-01-30T06:27:30;102414.47;;;2.92;86.77
9035;BME280;4552;43.422;24.592;2024-01-30T06:29:57;102417.06;;;2.78;88.43
9035;BME280;4552;43.422;24.592;2024-01-30T06:32:24;102433.81;;;2.84;89.08
9035;BME280;4552;43.422;24.592;2024-01-30T06:34:51;102425.31;;;3.01;88.15
9035;BME280;4552;43.422;24.592;2024-01-30T06:47:25;102440.16;;;2.60;88.24
9035;BME280;4552;43.422;24.592;2024-01-30T06:49:52;102439.72;;;2.82;88.47
9035;BME280;4552;43.422;24.592;2024-01-30T07:02:29;102431.13;;;2.97;85.28
9035;BME280;4552;43.422;24.592;2024-01-30T07:04:56;102456.25;;;3.14;85.35
9035;BME280;4552;43.422;24.592;2024-01-30T07:07:24;102436.81;;;3.06;85.58
9035;BME280;4552;43.422;24.592;2024-01-30T07:09:52;102428.94;;;3.19;84.78
9035;BME280;4552;43.422;24.592;2024-01-30T07:12:22;102424.56;;;3.18;84.64
9035;BME280;4552;43.422;24.592;2024-01-30T07:14:50;102434.47;;;3.25;82.59
9035;BME280;4552;43.422;24.592;2024-01-30T07:17:17;102456.19;;;3.43;82.16
9035;BME280;4552;43.422;24.592;2024-01-30T07:19:45;102449.34;;;3.60;81.97
9035;BME280;4552;43.422;24.592;2024-01-30T07:22:12;102440.25;;;3.52;81.00
9035;BME280;4552;43.422;24.592;2024-01-30T07:24:42;102448.44;;;3.59;80.80
9035;BME280;4552;43.422;24.592;2024-01-30T07:27:12;102451.94;;;3.76;80.25
9035;BME280;4552;43.422;24.592;2024-01-30T07:29:40;102456.16;;;3.74;78.98
9035;BME280;4552;43.422;24.592;2024-01-30T07:32:06;102462.16;;;3.42;79.45
9035;BME280;4552;43.422;24.592;2024-01-30T07:34:33;102440.25;;;3.52;79.94
9035;BME280;4552;43.422;24.592;2024-01-30T07:37:24;102445.50;;;3.37;80.84
9035;BME280;4552;43.422;24.592;2024-01-30T07:39:52;102441.75;;;3.32;80.86
9035;BME280;4552;43.422;24.592;2024-01-30T07:42:18;102445.69;;;3.56;80.75
9035;BME280;4552;43.422;24.592;2024-01-30T07:44:45;102440.41;;;3.55;80.50
9035;BME280;4552;43.422;24.592;2024-01-30T07:47:12;102445.47;;;3.68;79.33
9035;BME280;4552;43.422;24.592;2024-01-30T07:49:39;102455.03;;;4.01;77.19
9035;BME280;4552;43.422;24.592;2024-01-30T08:59:52;102451.44;;;4.81;71.87
9035;BME280;4552;43.422;24.592;2024-01-30T09:02:19;102454.19;;;4.68;71.69
9035;BME280;4552;43.422;24.592;2024-01-30T09:04:46;102462.53;;;4.78;71.77
9035;BME280;4552;43.422;24.592;2024-01-30T09:07:13;102444.34;;;4.78;70.78
9035;BME280;4552;43.422;24.592;2024-01-30T09:09:41;102444.91;;;5.06;69.76
9035;BME280;4552;43.422;24.592;2024-01-30T09:12:08;102457.91;;;5.24;68.28
9035;BME280;4552;43.422;24.592;2024-01-30T09:14:38;102432.25;;;4.95;68.39
9035;BME280;4552;43.422;24.592;2024-01-30T09:17:10;102429.94;;;5.01;68.54
9035;BME280;4552;43.422;24.592;2024-01-30T09:19:37;102434.59;;;5.08;68.36
9035;BME280;4552;43.422;24.592;2024-01-30T09:22:05;102432.81;;;4.89;68.03
9035;BME280;4552;43.422;24.592;2024-01-30T09:24:32;102454.59;;;4.75;69.39
9035;BME280;4552;43.422;24.592;2024-01-30T09:26:59;102443.28;;;5.08;68.78
9035;BME280;4552;43.422;24.592;2024-01-30T09:29:26;102453.50;;;5.23;68.68
9035;BME280;4552;43.422;24.592;2024-01-30T09:31:53;102452.19;;;5.31;66.44
9035;BME280;4552;43.422;24.592;2024-01-30T09:34:21;102442.41;;;4.90;67.41
9035;BME280;4552;43.422;24.592;2024-01-30T09:36:49;102442.78;;;4.98;67.73
9035;BME280;4552;43.422;24.592;2024-01-30T09:39:15;102447.72;;;5.11;67.76
9035;BME280;4552;43.422;24.592;2024-01-30T09:41:48;102445.28;;;5.14;66.76
9035;BME280;4552;43.422;24.592;2024-01-30T09:44:16;102441.41;;;5.06;67.38
9035;BME280;4552;43.422;24.592;2024-01-30T09:46:45;102453.56;;;5.24;66.44
9035;BME280;4552;43.422;24.592;2024-01-30T09:49:14;102443.13;;;5.23;64.09
9035;BME280;4552;43.422;24.592;2024-01-30T09:51:43;102436.19;;;5.41;64.37
9035;BME280;4552;43.422;24.592;2024-01-30T09:54:14;102439.53;;;5.56;63.69
9035;BME280;4552;43.422;24.592;2024-01-30T09:56:41;102435.19;;;5.74;62.81
9035;BME280;4552;43.422;24.592;2024-01-30T09:59:08;102435.47;;;5.80;62.20
9035;BME280;4552;43.422;24.592;2024-01-30T10:01:36;102438.16;;;5.82;62.32
9035;BME280;4552;43.422;24.592;2024-01-30T10:04:04;102423.19;;;5.95;61.62
9035;BME280;4552;43.422;24.592;2024-01-30T10:06:31;102419.03;;;5.99;62.05
9035;BME280;4552;43.422;24.592;2024-01-30T10:09:01;102412.00;;;5.79;61.31
9035;BME280;4552;43.422;24.592;2024-01-30T10:11:30;102432.03;;;5.81;61.58
9035;BME280;4552;43.422;24.592;2024-01-30T10:13:57;102420.78;;;5.81;61.16
9035;BME280;4552;43.422;24.592;2024-01-30T10:16:24;102424.53;;;5.68;61.83
9035;BME280;4552;43.422;24.592;2024-01-30T10:18:53;102417.38;;;5.45;62.62
9035;BME280;4552;43.422;24.592;2024-01-30T10:21:20;102420.13;;;5.30;63.78
9035;BME280;4552;43.422;24.592;2024-01-30T10:23:48;102421.19;;;5.16;64.39
9035;BME280;4552;43.422;24.592;2024-01-30T10:26:17;102411.31;;;5.27;63.72
9035;BME280;4552;43.422;24.592;2024-01-30T11:44:56;102351.00;;;5.88;59.43
9035;BME280;4552;43.422;24.592;2024-01-30T11:47:23;102342.94;;;5.65;58.82
9035;BME280;4552;43.422;24.592;2024-01-30T11:49:50;102358.03;;;5.73;57.92
9035;BME280;4552;43.422;24.592;2024-01-30T11:52:17;102347.91;;;5.41;58.40
9035;BME280;4552;43.422;24.592;2024-01-30T11:58:06;102338.22;;;5.37;60.23
9035;BME280;4552;43.422;24.592;2024-01-30T12:00:35;102330.59;;;5.59;59.07
9035;BME280;4552;43.422;24.592;2024-01-30T12:03:03;102344.78;;;5.48;58.96
9035;BME280;4552;43.422;24.592;2024-01-30T12:05:31;102335.47;;;5.34;57.40
9035;BME280;4552;43.422;24.592;2024-01-30T12:14:42;102343.16;;;5.69;54.66
9035;BME280;4552;43.422;24.592;2024-01-30T12:17:11;102340.47;;;5.29;55.60
9035;BME280;4552;43.422;24.592;2024-01-30T12:19:38;102339.16;;;5.20;56.74
9035;BME280;4552;43.422;24.592;2024-01-30T12:22:05;102322.72;;;5.02;55.41
9035;BME280;4552;43.422;24.592;2024-01-30T13:19:40;102272.69;;;5.62;58.88
9035;BME280;4552;43.422;24.592;2024-01-30T13:22:08;102268.72;;;5.70;57.90
9035;BME280;4552;43.422;24.592;2024-01-30T13:24:34;102264.59;;;5.75;56.40
9035;BME280;4552;43.422;24.592;2024-01-30T13:27:02;102250.34;;;5.65;56.56
9035;BME280;4552;43.422;24.592;2024-01-30T13:29:31;102257.03;;;5.60;57.14
9035;BME280;4552;43.422;24.592;2024-01-30T13:31:58;102277.97;;;5.82;56.64
9035;BME280;4552;43.422;24.592;2024-01-30T13:34:25;102264.41;;;5.89;57.12
9035;BME280;4552;43.422;24.592;2024-01-30T13:36:53;102248.75;;;5.88;55.94
9035;BME280;4552;43.422;24.592;2024-01-30T13:46:04;102266.13;;;5.70;57.62
9035;BME280;4552;43.422;24.592;2024-01-30T13:48:31;102267.56;;;5.44;57.45
9035;BME280;4552;43.422;24.592;2024-01-30T13:50:58;102263.59;;;5.52;56.83
9035;BME280;4552;43.422;24.592;2024-01-30T14:00:11;102268.53;;;5.46;55.76
9035;BME280;4552;43.422;24.592;2024-01-30T14:02:41;102272.91;;;5.47;55.99
9035;BME280;4552;43.422;24.592;2024-01-30T14:05:09;102268.81;;;5.33;57.17
9035;BME280;4552;43.422;24.592;2024-01-30T14:07:37;102262.78;;;5.53;57.36
9035;BME280;4552;43.422;24.592;2024-01-30T14:20:15;102246.09;;;5.29;59.74
9035;BME280;4552;43.422;24.592;2024-01-30T14:22:43;102243.66;;;5.13;60.57
9035;BME280;4552;43.422;24.592;2024-01-30T14:25:09;102240.09;;;4.92;61.75
9035;BME280;4552;43.422;24.592;2024-01-30T14:27:37;102247.75;;;4.89;61.93
9035;BME280;4552;43.422;24.592;2024-01-30T14:30:06;102235.56;;;4.88;62.37
9035;BME280;4552;43.422;24.592;2024-01-30T14:32:33;102235.44;;;4.85;62.37
9035;BME280;4552;43.422;24.592;2024-01-30T14:35:15;102248.09;;;4.96;62.57
9035;BME280;4552;43.422;24.592;2024-01-30T14:37:42;102229.53;;;4.87;63.32
9035;BME280;4552;43.422;24.592;2024-01-30T14:40:10;102234.31;;;4.80;62.84
9035;BME280;4552;43.422;24.592;2024-01-30T14:42:37;102245.28;;;5.11;62.29
9035;BME280;4552;43.422;24.592;2024-01-30T14:45:05;102248.03;;;4.95;62.68
9035;BME280;4552;43.422;24.592;2024-01-30T14:47:33;102247.47;;;4.83;62.94
9035;BME280;4552;43.422;24.592;2024-01-30T14:50:01;102248.66;;;4.72;63.31
9035;BME280;4552;43.422;24.592;2024-01-30T14:52:31;102241.09;;;4.76;64.21
9035;BME280;4552;43.422;24.592;2024-01-30T16:07:29;102243.19;;;3.96;69.22
9035;BME280;4552;43.422;24.592;2024-01-30T16:10:00;102242.00;;;3.89;71.25
9035;BME280;4552;43.422;24.592;2024-01-30T16:12:27;102235.63;;;3.83;70.15
9035;BME280;4552;43.422;24.592;2024-01-30T16:14:54;102249.31;;;3.80;71.00
9035;BME280;4552;43.422;24.592;2024-01-30T16:17:21;102244.22;;;3.82;71.31
9035;BME280;4552;43.422;24.592;2024-01-30T16:20:07;102244.06;;;3.79;71.02
9035;BME280;4552;43.422;24.592;2024-01-30T16:22:38;102259.84;;;3.67;71.77
9035;BME280;4552;43.422;24.592;2024-01-30T16:25:05;102262.66;;;3.72;71.85
9035;BME280;4552;43.422;24.592;2024-01-30T16:27:32;102260.59;;;3.65;72.07
9035;BME280;4552;43.422;24.592;2024-01-30T16:30:06;102261.25;;;3.61;73.05
9035;BME280;4552;43.422;24.592;2024-01-30T16:32:34;102260.28;;;3.58;73.72
9035;BME280;4552;43.422;24.592;2024-01-30T16:35:12;102253.47;;;3.61;74.46
9035;BME280;4552;43.422;24.592;2024-01-30T16:37:58;102246.13;;;3.52;74.58
9035;BME280;4552;43.422;24.592;2024-01-30T16:40:26;102248.66;;;3.34;74.72
9035;BME280;4552;43.422;24.592;2024-01-30T16:42:53;102261.75;;;3.37;75.26
9035;BME280;4552;43.422;24.592;2024-01-30T16:45:20;102253.69;;;3.31;75.63
9035;BME280;4552;43.422;24.592;2024-01-30T16:48:20;102260.38;;;3.28;75.20
9035;BME280;4552;43.422;24.592;2024-01-30T16:51:04;102249.03;;;3.26;75.12
9035;BME280;4552;43.422;24.592;2024-01-30T16:53:33;102257.22;;;3.17;75.50
9035;BME280;4552;43.422;24.592;2024-01-30T17:36:54;102241.00;;;2.12;79.50
9035;BME280;4552;43.422;24.592;2024-01-30T17:39:21;102234.38;;;2.17;78.43
9035;BME280;4552;43.422;24.592;2024-01-30T17:41:53;102238.13;;;2.22;78.33
9035;BME280;4552;43.422;24.592;2024-01-30T17:44:46;102234.28;;;2.16;78.34
9035;BME280;4552;43.422;24.592;2024-01-30T17:47:18;102241.69;;;2.10;79.14
9035;BME280;4552;43.422;24.592;2024-01-30T17:49:47;102243.84;;;2.02;79.72
9035;BME280;4552;43.422;24.592;2024-01-30T17:52:24;102244.56;;;1.85;80.10
9035;BME280;4552;43.422;24.592;2024-01-30T17:55:07;102228.13;;;1.83;79.70
9035;BME280;4552;43.422;24.592;2024-01-30T17:57:37;102235.94;;;1.85;79.84
9035;BME280;4552;43.422;24.592;2024-01-30T18:00:05;102229.72;;;1.66;80.40
9035;BME280;4552;43.422;24.592;2024-01-30T18:02:33;102233.63;;;1.60;81.28
9035;BME280;4552;43.422;24.592;2024-01-30T18:05:17;102224.53;;;1.52;81.82
9035;BME280;4552;43.422;24.592;2024-01-30T18:07:49;102234.63;;;1.62;80.92
9035;BME280;4552;43.422;24.592;2024-01-30T18:13:38;102222.81;;;1.38;80.79
9035;BME280;4552;43.422;24.592;2024-01-30T18:16:05;102211.38;;;1.33;80.97
9035;BME280;4552;43.422;24.592;2024-01-30T18:18:32;102221.09;;;1.24;80.89
9035;BME280;4552;43.422;24.592;2024-01-30T18:21:13;102220.16;;;1.22;81.49
9035;BME280;4552;43.422;24.592;2024-01-30T18:23:42;102194.84;;;1.02;81.92
9035;BME280;4552;43.422;24.592;2024-01-30T18:29:31;102206.56;;;0.97;84.21
9035;BME280;4552;43.422;24.592;2024-01-30T18:32:16;102218.94;;;1.02;84.14
9035;BME280;4552;43.422;24.592;2024-01-30T18:34:43;102213.91;;;0.91;84.38
9035;BME280;4552;43.422;24.592;2024-01-30T18:37:10;102216.22;;;0.86;85.09
9035;BME280;4552;43.422;24.592;2024-01-30T18:43:19;102216.94;;;0.71;86.83
9035;BME280;4552;43.422;24.592;2024-01-30T18:45:53;102216.47;;;0.63;86.99
9035;BME280;4552;43.422;24.592;2024-01-30T18:48:20;102218.75;;;0.59;87.40
9035;BME280;4552;43.422;24.592;2024-01-30T18:50:48;102201.84;;;0.49;87.16
9035;BME280;4552;43.422;24.592;2024-01-30T18:53:15;102223.81;;;0.70;87.20
9035;BME280;4552;43.422;24.592;2024-01-30T18:55:42;102220.72;;;0.63;87.16
9035;BME280;4552;43.422;24.592;2024-01-30T18:58:09;102220.34;;;0.70;86.86
9035;BME280;4552;43.422;24.592;2024-01-30T19:00:40;102215.38;;;0.60;86.58
9035;BME280;4552;43.422;24.592;2024-01-30T19:03:07;102209.84;;;0.54;86.89
9035;BME280;4552;43.422;24.592;2024-01-30T19:05:38;102218.06;;;0.61;86.54
9035;BME280;4552;43.422;24.592;2024-01-30T19:08:19;102206.31;;;0.52;86.97
9035;BME280;4552;43.422;24.592;2024-01-30T19:45:46;102191.78;;;0.26;88.43
9035;BME280;4552;43.422;24.592;2024-01-30T19:48:34;102190.47;;;0.33;88.51
9035;BME280;4552;43.422;24.592;2024-01-30T19:51:24;102173.78;;;0.13;88.26
9035;BME280;4552;43.422;24.592;2024-01-30T19:53:51;102186.94;;;0.18;88.38
9035;BME280;4552;43.422;24.592;2024-01-30T19:59:49;102178.84;;;0.12;88.74
9035;BME280;4552;43.422;24.592;2024-01-30T20:02:42;102174.97;;;0.05;89.00
9035;BME280;4552;43.422;24.592;2024-01-30T20:05:14;102171.91;;;-0.03;89.68
9035;BME280;4552;43.422;24.592;2024-01-30T20:07:51;102175.28;;;-0.04;89.47
9035;BME280;4552;43.422;24.592;2024-01-30T20:14:06;102181.22;;;0.09;89.81
9035;BME280;4552;43.422;24.592;2024-01-30T20:16:36;102175.09;;;-0.07;90.15
9035;BME280;4552;43.422;24.592;2024-01-30T20:19:05;102180.25;;;-0.07;90.09
9035;BME280;4552;43.422;24.592;2024-01-30T20:21:35;102163.09;;;-0.19;90.59
9035;BME280;4552;43.422;24.592;2024-01-30T20:24:11;102182.19;;;-0.03;90.54
9035;BME280;4552;43.422;24.592;2024-01-30T20:26:55;102167.94;;;-0.11;89.97
9035;BME280;4552;43.422;24.592;2024-01-30T20:29:28;102174.50;;;-0.16;90.45
9035;BME280;4552;43.422;24.592;2024-01-30T20:32:02;102163.31;;;-0.16;90.04
9035;BME280;4552;43.422;24.592;2024-01-30T20:34:31;102178.03;;;-0.14;90.47
9035;BME280;4552;43.422;24.592;2024-01-30T20:36:58;102167.16;;;-0.23;91.04
9035;BME280;4552;43.422;24.592;2024-01-30T20:39:44;102162.72;;;-0.25;90.90
9035;BME280;4552;43.422;24.592;2024-01-30T20:42:12;102147.34;;;-0.37;91.51
9035;BME280;4552;43.422;24.592;2024-01-30T20:44:41;102145.78;;;-0.35;91.51
9035;BME280;4552;43.422;24.592;2024-01-30T20:47:09;102148.66;;;-0.30;91.43
9035;BME280;4552;43.422;24.592;2024-01-30T20:49:38;102155.59;;;-0.16;90.92
9035;BME280;4552;43.422;24.592;2024-01-30T20:52:25;102128.19;;;-0.42;91.31
9035;BME280;4552;43.422;24.592;2024-01-30T21:08:23;102142.94;;;-0.26;91.32
9035;BME280;4552;43.422;24.592;2024-01-30T21:10:50;102144.00;;;-0.23;91.37
9035;BME280;4552;43.422;24.592;2024-01-30T21:13:25;102123.44;;;-0.23;91.87
9035;BME280;4552;43.422;24.592;2024-01-30T21:15:52;102109.19;;;-0.18;92.49
9035;BME280;4552;43.422;24.592;2024-01-30T21:18:19;102125.19;;;-0.09;91.56
9035;BME280;4552;43.422;24.592;2024-01-30T21:21:00;102135.00;;;-0.16;91.40
9035;BME280;4552;43.422;24.592;2024-01-30T21:44:17;102133.91;;;-0.46;91.50
9035;BME280;4552;43.422;24.592;2024-01-30T21:47:14;102113.91;;;-0.76;91.84
9035;BME280;4552;43.422;24.592;2024-01-30T21:49:56;102128.53;;;-0.88;93.18
9035;BME280;4552;43.422;24.592;2024-01-30T21:53:28;102125.34;;;-0.84;93.15
9035;BME280;4552;43.422;24.592;2024-01-30T22:20:38;102096.22;;;-1.46;94.65
9035;BME280;4552;43.422;24.592;2024-01-30T22:23:50;102112.31;;;-1.49;94.56
9035;BME280;4552;43.422;24.592;2024-01-30T22:26:25;102083.75;;;-1.53;94.25
9035;BME280;4552;43.422;24.592;2024-01-30T22:29:24;102089.31;;;-1.47;94.15
9035;BME280;4552;43.422;24.592;2024-01-30T22:35:11;102103.44;;;-1.65;94.10
9035;BME280;4552;43.422;24.592;2024-01-30T22:38:06;102091.97;;;-1.46;94.05
9035;BME280;4552;43.422;24.592;2024-01-30T23:29:06;102066.44;;;-2.05;96.62
9035;BME280;4552;43.422;24.592;2024-01-30T23:31:40;102051.16;;;-2.04;97.34
9035;BME280;4552;43.422;24.592;2024-01-30T23:34:09;102058.09;;;-2.26;96.35
9035;BME280;4552;43.422;24.592;2024-01-30T23:36:40;102069.00;;;-2.05;96.31
9035;BME280;4552;43.422;24.592;2024-01-30T23:39:07;102060.22;;;-2.20;96.72
9035;BME280;4552;43.422;24.592;2024-01-30T23:41:48;102062.84;;;-2.07;97.08
9035;BME280;4552;43.422;24.592;2024-01-30T23:44:15;102038.06;;;-2.31;96.56
9035;BME280;4552;43.422;24.592;2024-01-30T23:46:42;102042.06;;;-2.35;97.03
9035;BME280;4552;43.422;24.592;2024-01-30T23:49:09;102040.50;;;-2.33;97.50
9035;BME280;4552;43.422;24.592;2024-01-30T23:51:37;102064.41;;;-2.09;97.28
9035;BME280;4552;43.422;24.592;2024-01-30T23:54:04;102060.13;;;-2.33;97.16
